Time;durP1;ratioP1;P1;durP2;ratioP2;P2;SDS_P1;SDS_P2;PMS_P1;PMS_P2;Temp;Humidity;BMP_temperature;BMP_pressure;BME280_temperature;BME280_humidity;BME280_pressure;Samples;Min_cycle;Max_cycle;Signal;HPM_P1;HPM_P2
2022/05/30 00:00:09;;;;;;;5.97;1.45;;;;;;;11.68;64.81;101276.03;5068824;28;20032;-87
2022/05/30 00:02:34;;;;;;;5.20;1.70;;;;;;;11.67;65.19;101271.69;5085298;28;20059;-87
2022/05/30 00:05:00;;;;;;;8.63;1.83;;;;;;;11.67;66.87;101271.69;5078769;28;20464;-87
2022/05/30 00:07:26;;;;;;;7.20;1.58;;;;;;;11.66;65.42;101267.31;5067860;28;20153;-87
2022/05/30 00:09:51;;;;;;;7.65;1.55;;;;;;;11.67;65.21;101269.03;5087005;28;20255;-87
2022/05/30 00:12:17;;;;;;;4.30;1.73;;;;;;;11.71;68.25;101270.66;5085374;28;20024;-87
2022/05/30 00:14:42;;;;;;;4.90;1.60;;;;;;;11.66;66.68;101263.81;5063783;28;20031;-87
2022/05/30 00:17:07;;;;;;;6.38;1.42;;;;;;;11.70;64.90;101276.88;5081778;28;20040;-87
2022/05/30 00:19:37;;;;;;;5.18;1.80;;;;;;;11.67;66.22;101268.16;5080674;28;20032;-87
2022/05/30 00:22:03;;;;;;;4.35;1.60;;;;;;;11.65;64.63;101270.84;5070525;28;20119;-87
2022/05/30 00:24:28;;;;;;;5.82;1.90;;;;;;;11.64;64.85;101266.47;5088692;28;20026;-88
2022/05/30 00:26:53;;;;;;;4.63;2.10;;;;;;;11.64;65.05;101269.13;5068799;28;20020;-87
2022/05/30 00:29:19;;;;;;;6.75;1.58;;;;;;;11.62;64.68;101268.34;5068849;28;20054;-88
2022/05/30 00:31:45;;;;;;;5.63;1.98;;;;;;;11.60;65.46;101275.47;5066259;28;20348;-88
2022/05/30 00:34:10;;;;;;;6.32;1.90;;;;;;;11.57;64.67;101265.00;5083149;28;20039;-88
2022/05/30 00:36:35;;;;;;;4.47;1.92;;;;;;;11.51;64.83;101262.56;5083565;28;20025;-87
2022/05/30 00:39:01;;;;;;;5.72;1.60;;;;;;;11.51;65.61;101254.63;5073880;28;20020;-87
2022/05/30 00:41:26;;;;;;;7.40;1.90;;;;;;;11.56;65.96;101265.03;5068732;28;20020;-87
2022/05/30 00:43:52;;;;;;;7.55;2.22;;;;;;;11.57;65.36;101262.34;5069898;28;20032;-87
2022/05/30 00:46:17;;;;;;;7.10;1.80;;;;;;;11.61;65.88;101266.63;5084476;28;20483;-88
2022/05/30 00:49:00;;;;;;;5.40;1.85;;;;;;;11.58;65.01;101249.97;5084772;28;20032;-87
2022/05/30 00:51:39;;;;;;;5.85;1.95;;;;;;;11.59;65.36;101260.50;5098339;28;20458;-87
2022/05/30 00:54:07;;;;;;;8.05;2.75;;;;;;;11.48;65.83;101254.75;5066011;28;20493;-88
2022/05/30 00:56:37;;;;;;;5.18;2.00;;;;;;;11.42;66.30;101249.66;5072082;28;20081;-87
2022/05/30 00:59:04;;;;;;;7.43;1.80;;;;;;;11.41;67.96;101245.31;5066724;28;20040;-87
2022/05/30 01:01:31;;;;;;;7.38;2.00;;;;;;;11.38;69.93;101245.44;5085445;28;20067;-87
2022/05/30 01:06:45;;;;;;;7.03;1.90;;;;;;;11.31;67.15;101242.13;5088141;28;20492;-88
2022/05/30 01:09:18;;;;;;;8.75;1.83;;;;;;;11.35;66.39;101245.53;5067007;28;20423;-87
2022/05/30 01:11:49;;;;;;;5.22;1.90;;;;;;;11.36;66.22;101247.25;5065502;28;20569;-88
2022/05/30 01:14:14;;;;;;;4.25;1.90;;;;;;;11.32;66.71;101243.84;5086286;28;20317;-88
2022/05/30 01:16:40;;;;;;;4.75;2.20;;;;;;;11.30;66.96;101245.72;5086244;28;20024;-87
2022/05/30 01:19:16;;;;;;;5.45;1.60;;;;;;;11.28;66.59;101244.88;5086819;28;20058;-87
2022/05/30 01:22:17;;;;;;;6.10;1.95;;;;;;;11.35;67.83;101240.25;5085097;28;20028;-87
2022/05/30 01:24:52;;;;;;;8.40;2.28;;;;;;;11.30;67.09;101242.19;5029147;28;20047;-88
2022/05/30 01:27:47;;;;;;;6.00;1.88;;;;;;;11.36;66.69;101250.75;5070021;28;20482;-88
2022/05/30 01:30:15;;;;;;;5.80;1.98;;;;;;;11.38;70.28;101242.78;5066396;28;20078;-87
2022/05/30 01:32:40;;;;;;;4.72;1.83;;;;;;;11.31;67.14;101234.19;5075992;28;20020;-87
2022/05/30 01:35:06;;;;;;;7.82;2.10;;;;;;;11.32;68.81;101240.34;5070333;28;20039;-87
2022/05/30 01:37:31;;;;;;;6.22;2.20;;;;;;;11.30;68.76;101236.91;5080536;28;20351;-87
2022/05/30 01:39:57;;;;;;;7.63;2.15;;;;;;;11.26;67.87;101236.16;5086537;28;20066;-87
2022/05/30 01:42:22;;;;;;;6.78;2.05;;;;;;;11.20;69.29;101234.59;5086021;28;20479;-87
2022/05/30 01:44:48;;;;;;;8.00;2.05;;;;;;;11.16;67.21;101227.69;5066171;28;20565;-87
2022/05/30 01:47:13;;;;;;;4.18;2.08;;;;;;;11.12;67.65;101222.56;5065530;28;20290;-87
2022/05/30 01:49:39;;;;;;;4.75;1.83;;;;;;;11.10;67.14;101214.69;5085498;28;20447;-87
2022/05/30 01:52:06;;;;;;;8.52;2.75;;;;;;;11.14;67.20;101234.78;5087238;28;20036;-87
2022/05/30 01:54:31;;;;;;;5.20;1.83;;;;;;;11.09;69.76;101231.47;5087367;28;20028;-87
2022/05/30 01:56:56;;;;;;;5.45;2.08;;;;;;;11.05;67.56;101228.97;5084630;28;20038;-87
2022/05/30 01:59:22;;;;;;;8.98;2.40;;;;;;;11.03;67.73;101226.38;5084988;28;20049;-87
2022/05/30 02:01:47;;;;;;;8.07;2.10;;;;;;;11.03;69.13;101223.75;5066679;28;20286;-87
2022/05/30 02:04:14;;;;;;;7.88;2.45;;;;;;;11.03;67.83;101229.03;5071225;28;20083;-87
2022/05/30 02:06:39;;;;;;;3.00;2.03;;;;;;;10.98;68.00;101218.63;5068631;28;20322;-87
2022/05/30 02:09:05;;;;;;;6.32;1.80;;;;;;;10.94;67.59;101232.00;5070564;28;20028;-87
2022/05/30 02:11:31;;;;;;;8.93;3.15;;;;;;;10.91;67.43;101233.00;5086782;28;20047;-87
2022/05/30 02:13:56;;;;;;;5.53;2.15;;;;;;;10.87;69.41;101225.22;5068808;28;21119;-87
2022/05/30 02:19:09;;;;;;;3.53;1.83;;;;;;;10.73;68.63;101215.13;5081509;28;20086;-87
2022/05/30 02:21:35;;;;;;;6.40;2.05;;;;;;;10.75;69.35;101215.06;5087878;28;20507;-87
2022/05/30 02:24:06;;;;;;;5.47;2.22;;;;;;;10.78;69.18;101220.25;5068877;28;20111;-87
2022/05/30 02:26:33;;;;;;;7.28;2.33;;;;;;;10.78;69.35;101225.53;5085293;28;20070;-87
2022/05/30 02:28:59;;;;;;;6.97;2.22;;;;;;;10.81;69.09;101225.41;5057700;28;20020;-87
2022/05/30 02:31:24;;;;;;;7.75;2.30;;;;;;;10.79;68.48;101217.53;5084645;28;20061;-87
2022/05/30 02:36:39;;;;;;;6.32;2.00;;;;;;;10.86;68.89;101218.19;5085930;28;20043;-87
2022/05/30 02:39:10;;;;;;;6.93;2.40;;;;;;;10.79;68.76;101211.41;5087642;28;20494;-87
2022/05/30 02:41:36;;;;;;;3.55;1.98;;;;;;;10.78;68.70;101217.63;5067303;28;20090;-87
2022/05/30 02:44:02;;;;;;;5.85;2.42;;;;;;;10.77;68.46;101223.78;5080628;28;20031;-87
2022/05/30 02:46:27;;;;;;;4.35;2.17;;;;;;;10.60;68.60;101201.47;5084475;28;20422;-87
2022/05/30 02:48:52;;;;;;;7.07;2.53;;;;;;;10.67;68.97;101212.66;5069038;28;20035;-87
2022/05/30 02:51:18;;;;;;;8.77;2.22;;;;;;;10.66;68.80;101216.25;5085355;28;20406;-87
2022/05/30 02:53:43;;;;;;;8.65;2.53;;;;;;;10.62;69.13;101220.75;5066946;28;20443;-87
2022/05/30 02:56:11;;;;;;;3.97;2.30;;;;;;;10.48;68.97;101218.59;5074709;28;20039;-87
2022/05/30 02:58:37;;;;;;;5.85;2.30;;;;;;;10.42;69.70;101207.38;5085079;28;20474;-87
2022/05/30 03:01:02;;;;;;;5.28;2.58;;;;;;;10.37;69.46;101204.88;5082970;28;20028;-86
2022/05/30 03:03:27;;;;;;;7.40;2.42;;;;;;;10.42;72.35;101224.09;5090931;28;20046;-87
2022/05/30 03:05:54;;;;;;;9.52;3.00;;;;;;;10.41;69.29;101225.00;5087902;28;20024;-87
2022/05/30 03:08:20;;;;;;;7.53;2.20;;;;;;;10.34;69.75;101212.03;5086302;28;20479;-87
2022/05/30 03:10:46;;;;;;;7.97;2.60;;;;;;;10.34;70.25;101222.59;5069677;28;20226;-87
2022/05/30 03:13:11;;;;;;;4.95;2.58;;;;;;;10.31;71.09;101218.31;5066796;28;20077;-87
2022/05/30 03:15:36;;;;;;;6.25;2.75;;;;;;;10.28;69.84;101214.91;5070709;28;20023;-87
2022/05/30 03:18:02;;;;;;;6.35;2.78;;;;;;;10.25;70.37;101226.41;5074484;28;20524;-87
2022/05/30 03:20:27;;;;;;;6.68;2.83;;;;;;;10.07;71.21;101222.59;5070830;28;20485;-87
2022/05/30 03:22:52;;;;;;;6.10;2.97;;;;;;;10.00;71.64;101226.31;5071185;28;20038;-86
2022/05/30 03:25:18;;;;;;;9.35;2.92;;;;;;;9.91;72.20;101227.47;5091045;28;20439;-87
2022/05/30 03:27:44;;;;;;;6.30;2.53;;;;;;;9.94;71.85;101232.66;5067089;28;20039;-87
2022/05/30 03:30:11;;;;;;;7.40;2.60;;;;;;;9.94;71.85;101223.88;5085271;28;20030;-87
2022/05/30 03:32:37;;;;;;;7.45;2.95;;;;;;;9.97;71.71;101229.91;5085363;28;20097;-87
2022/05/30 03:35:04;;;;;;;6.43;2.85;;;;;;;9.96;72.16;101219.41;5090846;28;20479;-87
2022/05/30 03:37:29;;;;;;;7.03;2.90;;;;;;;10.03;71.72;101231.50;5089079;28;20024;-87
2022/05/30 03:39:54;;;;;;;9.27;3.13;;;;;;;10.14;74.06;101232.03;5089347;28;20023;-87
2022/05/30 03:42:19;;;;;;;4.82;2.95;;;;;;;10.15;71.76;101231.09;5071183;28;20035;-87
2022/05/30 03:44:45;;;;;;;8.30;3.25;;;;;;;10.20;73.63;101233.59;5087051;28;20028;-87
2022/05/30 03:47:11;;;;;;;5.20;2.90;;;;;;;10.18;71.99;101238.94;5070636;28;20123;-87
2022/05/30 03:49:37;;;;;;;12.05;2.90;;;;;;;10.20;71.57;101246.81;5087744;28;20050;-87
2022/05/30 03:52:03;;;;;;;7.22;2.67;;;;;;;10.20;71.49;101233.59;5080659;28;20456;-87
2022/05/30 03:54:28;;;;;;;6.78;3.65;;;;;;;10.27;72.86;101245.75;5088472;28;20040;-87
2022/05/30 03:56:54;;;;;;;6.63;2.85;;;;;;;10.25;71.89;101241.41;5077688;28;20380;-87
2022/05/30 03:59:19;;;;;;;5.25;2.90;;;;;;;10.26;71.42;101244.03;5085555;28;20085;-87
2022/05/30 04:01:44;;;;;;;9.45;3.33;;;;;;;10.27;71.87;101243.09;5081989;28;20499;-87
2022/05/30 04:04:12;;;;;;;9.32;3.65;;;;;;;10.25;71.96;101236.97;5068207;28;20028;-87
2022/05/30 04:06:38;;;;;;;7.15;4.10;;;;;;;10.31;71.79;101251.81;5069430;28;20783;-87
2022/05/30 04:09:04;;;;;;;7.38;3.70;;;;;;;10.34;72.05;101231.41;5072027;28;20029;-87
2022/05/30 04:11:30;;;;;;;8.55;4.10;;;;;;;10.38;71.37;101234.81;5083296;28;20440;-87
2022/05/30 04:13:55;;;;;;;9.90;4.22;;;;;;;10.39;71.59;101229.47;5082759;28;20066;-87
2022/05/30 04:16:21;;;;;;;7.57;4.30;;;;;;;10.42;71.55;101234.66;5069823;28;20039;-86
2022/05/30 04:18:46;;;;;;;8.70;3.88;;;;;;;10.50;72.33;101229.13;5073687;28;20119;-87
2022/05/30 04:21:12;;;;;;;7.00;4.10;;;;;;;10.53;71.30;101231.66;5068115;28;20032;-87
2022/05/30 04:23:41;;;;;;;10.30;4.47;;;;;;;10.51;71.95;101236.13;5087323;28;20032;-87
2022/05/30 04:26:08;;;;;;;8.10;4.28;;;;;;;10.45;72.19;101233.72;5070292;28;20038;-87
2022/05/30 04:28:34;;;;;;;10.05;4.63;;;;;;;10.29;72.77;101230.69;5073477;28;20024;-87
2022/05/30 04:31:03;;;;;;;15.57;4.78;;;;;;;10.18;72.97;101233.66;5069452;28;20020;-87
2022/05/30 04:33:31;;;;;;;6.93;4.30;;;;;;;10.30;72.70;101239.47;5088749;28;20050;-87
2022/05/30 04:35:57;;;;;;;12.48;4.57;;;;;;;10.37;71.65;101233.94;5088055;28;20062;-87
2022/05/30 04:38:22;;;;;;;8.93;4.90;;;;;;;10.44;71.59;101237.25;5085520;28;20032;-87
2022/05/30 04:40:47;;;;;;;11.98;5.90;;;;;;;10.42;71.33;101239.94;5071158;28;20047;-88
2022/05/30 04:43:13;;;;;;;13.35;5.68;;;;;;;10.46;70.66;101236.28;5071099;28;20024;-87
2022/05/30 04:45:38;;;;;;;11.68;4.85;;;;;;;10.50;71.04;101236.19;5086693;28;20039;-87
2022/05/30 04:48:04;;;;;;;8.63;4.63;;;;;;;10.57;71.06;101243.00;5065756;28;20068;-87
2022/05/30 04:50:29;;;;;;;11.82;5.45;;;;;;;10.61;70.99;101248.13;5086497;28;20514;-87
2022/05/30 04:52:55;;;;;;;12.35;5.03;;;;;;;10.60;70.71;101243.75;5088413;28;20083;-87
2022/05/30 04:55:21;;;;;;;14.10;5.07;;;;;;;10.59;70.93;101246.47;5063847;28;20457;-87
2022/05/30 04:57:48;;;;;;;7.88;4.43;;;;;;;10.57;71.25;101249.13;5088661;28;20024;-87
2022/05/30 05:00:17;;;;;;;11.00;4.70;;;;;;;10.60;70.94;101256.13;5084976;28;20032;-87
2022/05/30 05:02:43;;;;;;;12.48;5.07;;;;;;;10.46;71.20;101259.22;5083359;28;20032;-87
2022/05/30 05:05:09;;;;;;;9.13;4.70;;;;;;;10.22;72.22;101258.22;5068390;28;20027;-87
2022/05/30 05:07:39;;;;;;;11.15;5.43;;;;;;;10.26;72.15;101266.91;5088014;28;20129;-87
2022/05/30 05:10:27;;;;;;;10.98;5.90;;;;;;;10.28;72.13;101259.81;5086480;28;20111;-87
2022/05/30 05:12:52;;;;;;;8.63;5.32;;;;;;;10.23;72.98;101258.16;5068070;28;20035;-87
2022/05/30 05:15:18;;;;;;;9.60;5.55;;;;;;;10.22;72.84;101259.06;5066709;28;20035;-87
2022/05/30 05:17:43;;;;;;;15.18;6.10;;;;;;;10.15;72.85;101252.25;5087500;28;20039;-87
2022/05/30 05:20:09;;;;;;;10.63;5.82;;;;;;;10.27;73.12;101256.31;5084315;28;20470;-87
2022/05/30 05:22:34;;;;;;;10.63;6.50;;;;;;;10.52;72.37;101266.06;5082304;28;20029;-87
2022/05/30 05:25:00;;;;;;;17.33;5.82;;;;;;;10.73;71.29;101257.44;5066296;28;20019;-88
2022/05/30 05:27:25;;;;;;;11.55;5.85;;;;;;;10.79;71.05;101251.94;5089496;28;20042;-88
2022/05/30 05:29:54;;;;;;;12.07;6.28;;;;;;;10.76;70.92;101261.75;5060857;28;20554;-88
2022/05/30 05:32:19;;;;;;;9.10;5.30;;;;;;;10.80;70.52;101261.59;5066223;28;20486;-88
2022/05/30 05:34:45;;;;;;;9.40;5.68;;;;;;;10.94;70.77;101261.97;5088664;28;20482;-88
2022/05/30 05:37:10;;;;;;;11.13;5.55;;;;;;;11.13;69.98;101261.31;5081086;28;20028;-88
2022/05/30 05:39:35;;;;;;;8.02;4.88;;;;;;;11.26;69.15;101261.75;5065433;28;20045;-87
2022/05/30 05:42:01;;;;;;;10.80;4.40;;;;;;;11.38;68.38;101266.63;5067374;28;20024;-88
2022/05/30 05:44:26;;;;;;;9.98;4.75;;;;;;;11.52;68.06;101264.31;5076570;28;20036;-87
2022/05/30 05:46:56;;;;;;;10.80;4.70;;;;;;;11.59;67.36;101267.59;5067417;28;20024;-88
2022/05/30 05:49:21;;;;;;;11.32;4.60;;;;;;;11.62;66.33;101267.47;5083909;28;20024;-88
2022/05/30 05:51:53;;;;;;;10.57;4.18;;;;;;;11.60;66.83;101267.53;5070513;28;20036;-88
2022/05/30 05:54:22;;;;;;;7.53;4.68;;;;;;;11.61;67.20;101271.91;5081946;28;20024;-88
2022/05/30 05:56:47;;;;;;;11.95;5.53;;;;;;;11.56;67.47;101273.84;5083992;28;20265;-88
2022/05/30 05:59:13;;;;;;;10.45;4.50;;;;;;;11.60;67.70;101278.13;5081530;28;20032;-88
2022/05/30 06:01:38;;;;;;;11.30;4.55;;;;;;;11.60;67.60;101275.47;5065973;28;20030;-88
2022/05/30 06:04:06;;;;;;;9.63;4.25;;;;;;;11.60;69.25;101280.75;5069151;28;20077;-87
2022/05/30 06:06:32;;;;;;;10.80;5.03;;;;;;;11.55;66.86;101277.41;5065294;28;20028;-88
2022/05/30 06:08:59;;;;;;;10.73;4.53;;;;;;;11.53;67.36;101279.28;5068397;28;20012;-88
2022/05/30 06:11:24;;;;;;;9.35;4.75;;;;;;;11.58;68.00;101279.97;5051074;28;20016;-87
2022/05/30 06:13:51;;;;;;;9.77;4.65;;;;;;;11.54;67.21;101281.00;5084248;28;20368;-87
2022/05/30 06:16:26;;;;;;;8.05;4.32;;;;;;;11.54;67.21;101273.06;5061759;28;20522;-88
2022/05/30 06:18:53;;;;;;;7.93;3.92;;;;;;;11.61;65.88;101278.97;5057542;28;20028;-88
2022/05/30 06:21:19;;;;;;;6.78;3.83;;;;;;;11.70;65.77;101287.47;5090332;28;20020;-88
2022/05/30 06:23:46;;;;;;;8.38;3.88;;;;;;;11.77;65.17;101288.09;5054918;28;20477;-88
2022/05/30 06:26:12;;;;;;;9.55;3.50;;;;;;;11.83;65.21;101279.94;5092935;28;20525;-88
2022/05/30 06:28:39;;;;;;;8.75;3.95;;;;;;;11.91;65.32;101284.94;5085319;28;20024;-88
2022/05/30 06:31:10;;;;;;;9.30;3.80;;;;;;;11.99;65.40;101282.88;5096549;28;20028;-88
2022/05/30 06:33:35;;;;;;;9.00;3.67;;;;;;;12.23;65.34;101287.19;5085028;28;20037;-88
2022/05/30 06:36:03;;;;;;;6.57;3.47;;;;;;;12.40;64.79;101283.88;5086299;28;20028;-89
2022/05/30 06:38:28;;;;;;;9.27;3.92;;;;;;;12.48;65.74;101286.19;5085679;28;21313;-87
2022/05/30 06:40:54;;;;;;;11.93;3.20;;;;;;;12.49;62.29;101286.13;5082935;28;20029;-88
2022/05/30 06:43:19;;;;;;;6.45;2.95;;;;;;;12.54;61.70;101291.25;5071024;28;20542;-87
2022/05/30 06:45:47;;;;;;;7.97;3.05;;;;;;;12.51;61.10;101280.78;5086159;28;20434;-88
2022/05/30 06:48:13;;;;;;;9.50;2.47;;;;;;;12.61;60.37;101283.91;5065503;28;20063;-87
2022/05/30 06:50:39;;;;;;;10.85;3.13;;;;;;;12.75;60.52;101287.72;5072570;28;20506;-87
2022/05/30 06:53:05;;;;;;;5.93;2.25;;;;;;;12.96;59.87;101299.22;5069738;28;20028;-87
2022/05/30 06:55:31;;;;;;;4.57;2.00;;;;;;;13.12;58.24;101295.91;5088905;28;20110;-87
2022/05/30 06:58:12;;;;;;;3.15;2.30;;;;;;;13.23;62.01;101302.47;5082101;28;20175;-87
2022/05/30 07:00:38;;;;;;;5.05;2.00;;;;;;;13.36;59.01;101293.97;5070070;28;20023;-87
2022/05/30 07:03:03;;;;;;;6.68;2.08;;;;;;;13.54;59.35;101290.50;5086996;28;20028;-87
2022/05/30 07:05:29;;;;;;;6.38;1.85;;;;;;;13.73;60.17;101294.03;5076331;28;20115;-87
2022/05/30 07:07:56;;;;;;;9.20;2.58;;;;;;;13.88;59.81;101295.13;5070348;28;20471;-87
2022/05/30 07:10:22;;;;;;;5.32;2.17;;;;;;;14.04;58.73;101303.25;5072112;28;20024;-87
2022/05/30 07:12:48;;;;;;;7.95;2.20;;;;;;;14.15;57.95;101292.97;5083707;28;20380;-88
2022/05/30 07:15:13;;;;;;;4.70;1.70;;;;;;;14.36;54.54;101295.50;5081716;28;20024;-87
2022/05/30 07:17:38;;;;;;;6.82;1.25;;;;;;;14.37;51.47;101289.28;5074781;28;20094;-89
2022/05/30 07:20:04;;;;;;;5.43;1.30;;;;;;;14.50;54.80;101295.72;5085435;28;20490;-89
2022/05/30 07:22:29;;;;;;;1.98;0.95;;;;;;;14.83;51.10;101293.22;5064755;28;20028;-88
2022/05/30 07:24:55;;;;;;;5.85;1.13;;;;;;;14.72;51.32;101292.88;5070709;28;20028;-89
2022/05/30 07:27:20;;;;;;;2.03;0.90;;;;;;;14.52;51.21;101305.38;5084619;28;20387;-89
2022/05/30 07:29:45;;;;;;;6.47;1.50;;;;;;;14.36;52.78;101296.41;5065662;28;20518;-89
2022/05/30 07:32:11;;;;;;;3.22;1.25;;;;;;;14.20;50.44;101288.28;5092983;28;20057;-89
2022/05/30 07:34:37;;;;;;;4.80;1.10;;;;;;;14.22;50.29;101305.03;5074786;28;20024;-89
2022/05/30 07:37:03;;;;;;;6.15;1.23;;;;;;;14.13;51.42;101308.16;5068016;28;20126;-88
2022/05/30 07:39:29;;;;;;;5.25;1.20;;;;;;;14.03;51.80;101299.75;5073787;28;20032;-88
2022/05/30 07:41:54;;;;;;;3.58;1.08;;;;;;;14.11;52.78;101301.16;5087432;28;20095;-88
2022/05/30 07:44:20;;;;;;;5.15;1.30;;;;;;;14.14;52.58;101301.88;5068824;28;20020;-89
2022/05/30 07:46:45;;;;;;;3.28;1.10;;;;;;;14.21;51.51;101294.47;5081640;28;20151;-88
2022/05/30 07:49:12;;;;;;;5.35;1.35;;;;;;;14.48;50.53;101293.16;5083122;28;20479;-88
2022/05/30 07:51:38;;;;;;;3.25;1.05;;;;;;;14.88;49.56;101287.66;5070301;28;20052;-87
2022/05/30 07:54:03;;;;;;;3.00;0.90;;;;;;;15.10;48.20;101284.72;5077817;28;20437;-88
2022/05/30 07:56:29;;;;;;;3.17;1.30;;;;;;;16.01;45.98;101279.81;5068553;28;20031;-88
2022/05/30 07:58:54;;;;;;;4.38;1.08;;;;;;;16.87;44.44;101285.56;5079847;28;20037;-89
2022/05/30 08:01:20;;;;;;;3.40;1.25;;;;;;;16.76;43.97;101290.69;5069459;28;20414;-88
2022/05/30 08:03:47;;;;;;;4.65;1.10;;;;;;;16.46;45.45;101287.94;5072012;28;20039;-88
2022/05/30 08:06:16;;;;;;;3.88;1.02;;;;;;;16.29;46.08;101281.78;5073867;28;20028;-88
2022/05/30 08:08:43;;;;;;;5.38;1.15;;;;;;;16.12;45.00;101284.53;5081394;28;20656;-88
2022/05/30 08:11:10;;;;;;;2.88;1.10;;;;;;;16.06;48.46;101290.22;5069641;28;20055;-88
2022/05/30 08:13:35;;;;;;;5.03;0.90;;;;;;;16.01;44.29;101292.28;5086909;28;20023;-88
2022/05/30 08:16:02;;;;;;;4.47;1.00;;;;;;;16.01;44.29;101287.81;5071968;28;20054;-88
2022/05/30 08:18:28;;;;;;;2.88;1.00;;;;;;;16.11;43.46;101293.50;5084015;28;20390;-88
2022/05/30 08:20:54;;;;;;;3.25;1.23;;;;;;;16.25;43.05;101295.38;5068881;28;20053;-88
2022/05/30 08:23:19;;;;;;;3.45;1.08;;;;;;;16.57;43.25;101294.41;5074061;28;20433;-88
2022/05/30 08:25:47;;;;;;;3.05;1.83;;;;;;;16.78;43.50;101296.78;5088463;28;20115;-88
2022/05/30 08:28:12;;;;;;;4.15;1.90;;;;;;;16.80;41.37;101287.75;5085829;28;20028;-87
2022/05/30 08:30:37;;;;;;;5.10;2.20;;;;;;;16.76;41.99;101296.91;5067992;28;20339;-86
2022/05/30 08:33:09;;;;;;;3.13;2.10;;;;;;;16.50;43.70;101295.69;5070391;28;20028;-89
2022/05/30 08:35:36;;;;;;;3.42;1.80;;;;;;;16.52;41.57;101296.47;5083997;28;20057;-88
2022/05/30 08:38:01;;;;;;;7.93;2.08;;;;;;;16.53;43.88;101295.53;5073767;28;20028;-89
2022/05/30 08:43:32;;;;;;;4.25;2.88;;;;;;;18.13;42.41;101307.22;5084043;28;20047;-88
2022/05/30 08:46:06;;;;;;;4.20;1.30;;;;;;;20.09;40.08;101294.69;5082865;28;20718;-87
2022/05/30 08:49:06;;;;;;;3.58;1.52;;;;;;;21.30;36.91;101301.72;5082312;28;20028;-88
2022/05/30 08:51:56;;;;;;;6.57;1.80;;;;;;;20.75;36.68;101305.94;5064053;28;20076;-89
2022/05/30 08:54:42;;;;;;;5.38;1.60;;;;;;;19.99;37.44;101307.06;5055497;28;20496;-89
2022/05/30 08:57:16;;;;;;;2.80;1.25;;;;;;;19.41;37.38;101298.63;5065841;28;20111;-88
2022/05/30 08:59:50;;;;;;;3.60;1.45;;;;;;;19.25;37.15;101306.88;5064496;28;20025;-87
2022/05/30 09:02:55;;;;;;;2.45;1.00;;;;;;;19.18;38.43;101310.09;5081912;28;20067;-88
2022/05/30 09:05:27;;;;;;;2.63;1.20;;;;;;;19.09;34.62;101304.41;5033094;28;20729;-87
2022/05/30 09:07:56;;;;;;;3.65;0.90;;;;;;;19.20;33.01;101303.66;5059996;28;20048;-88
2022/05/30 09:10:28;;;;;;;3.03;0.85;;;;;;;19.08;33.78;101308.06;5058242;28;20029;-87
2022/05/30 09:13:07;;;;;;;3.03;0.90;;;;;;;19.23;35.44;101298.09;5060082;28;20017;-87
2022/05/30 09:15:42;;;;;;;1.85;0.75;;;;;;;19.20;34.82;101303.66;5062240;28;20109;-87
2022/05/30 09:18:16;;;;;;;1.45;0.90;;;;;;;19.16;36.05;101304.81;5062987;28;20119;-87
2022/05/30 09:20:42;;;;;;;4.13;1.20;;;;;;;18.72;35.50;101303.34;5064639;28;20032;-88
2022/05/30 09:23:08;;;;;;;2.25;1.10;;;;;;;18.75;37.94;101305.84;5061925;28;20048;-88
2022/05/30 09:26:00;;;;;;;3.13;1.00;;;;;;;18.86;38.67;101292.56;5064942;28;20475;-87
2022/05/30 09:28:30;;;;;;;4.88;1.48;;;;;;;18.69;35.69;101306.22;5063840;28;20024;-87
2022/05/30 09:31:21;;;;;;;2.38;1.10;;;;;;;18.39;37.42;101302.88;5059328;28;20472;-87
2022/05/30 09:34:19;;;;;;;2.95;1.58;;;;;;;18.79;39.02;101307.34;5067206;28;20458;-87
2022/05/30 09:36:48;;;;;;;4.00;1.20;;;;;;;19.71;38.06;101300.16;5059948;28;20523;-87
2022/05/30 09:39:18;;;;;;;3.58;1.30;;;;;;;20.50;35.69;101296.19;5068632;28;20035;-86
2022/05/30 09:41:43;;;;;;;5.35;1.40;;;;;;;21.11;35.34;101300.44;5057908;28;20028;-87
2022/05/30 09:44:17;;;;;;;4.53;1.57;;;;;;;21.44;34.44;101297.97;5064536;28;20256;-87
2022/05/30 09:47:01;;;;;;;4.50;1.88;;;;;;;21.19;34.78;101296.34;5073126;28;21055;-88
2022/05/30 09:49:46;;;;;;;2.92;1.63;;;;;;;20.95;33.47;101301.78;5066649;28;20498;-88
2022/05/30 09:52:34;;;;;;;2.95;1.45;;;;;;;20.80;34.42;101301.97;5058487;28;20519;-88
2022/05/30 09:55:01;;;;;;;4.78;1.52;;;;;;;20.35;33.94;101306.22;5079691;28;20453;-88
2022/05/30 09:57:43;;;;;;;3.92;1.25;;;;;;;20.11;34.65;101308.88;5084063;28;20032;-87
2022/05/30 10:00:11;;;;;;;;;;;;;;;20.19;35.69;101309.19;5085484;28;20078;-87
2022/05/30 10:02:38;;;;;;;2.25;1.10;;;;;;;19.62;31.55;101298.97;5091215;28;20129;-88
2022/05/30 10:05:23;;;;;;;4.65;1.30;;;;;;;19.04;35.31;101305.69;5090899;28;20070;-88
2022/05/30 10:08:04;;;;;;;3.88;1.20;;;;;;;18.89;36.54;101298.69;5069667;28;20156;-88
2022/05/30 10:10:36;;;;;;;4.60;1.30;;;;;;;18.93;35.65;101302.84;5090145;28;20106;-88
2022/05/30 10:13:07;;;;;;;2.28;1.20;;;;;;;19.04;36.59;101306.53;5065858;28;20055;-88
2022/05/30 10:15:37;;;;;;;5.05;1.15;;;;;;;19.57;36.74;101304.63;5084980;28;20039;-88
2022/05/30 10:18:17;;;;;;;3.40;1.17;;;;;;;20.20;36.17;101308.22;5084653;28;20046;-87
2022/05/30 10:21:25;;;;;;;4.15;1.10;;;;;;;20.71;31.95;101305.34;5073191;28;20052;-88
2022/05/30 10:30:26;;;;;;;2.50;0.93;;;;;;;21.61;33.24;101298.38;5082147;28;20116;-87
2022/05/30 10:33:12;;;;;;;2.85;1.20;;;;;;;21.71;35.27;101287.72;5077530;28;20023;-88
2022/05/30 10:35:54;;;;;;;3.05;1.00;;;;;;;21.91;31.53;101299.56;5088556;28;20040;-88
2022/05/30 10:38:25;;;;;;;2.80;1.05;;;;;;;21.99;32.74;101305.19;5072597;28;20463;-88
2022/05/30 10:41:03;;;;;;;3.30;1.13;;;;;;;21.66;30.25;101308.78;5067367;28;20042;-89
2022/05/30 10:44:06;;;;;;;3.58;1.10;;;;;;;21.36;32.52;101309.38;5069519;28;20317;-89
2022/05/30 10:46:53;;;;;;;4.90;1.00;;;;;;;21.15;32.45;101310.00;5086615;28;20034;-88
2022/05/30 10:49:21;;;;;;;2.10;1.17;;;;;;;20.19;32.59;101310.97;5064851;28;20054;-89
2022/05/30 10:52:02;;;;;;;2.78;1.20;;;;;;;19.72;33.62;101313.44;5050726;28;20049;-88
2022/05/30 10:54:39;;;;;;;3.03;1.42;;;;;;;19.23;34.41;101302.59;5047652;28;20391;-88
2022/05/30 10:57:22;;;;;;;5.75;1.90;;;;;;;18.68;35.09;101317.03;5059382;28;20123;-88
2022/05/30 10:59:56;;;;;;;5.28;1.70;;;;;;;18.68;35.83;101323.22;5050715;28;20410;-88
2022/05/30 11:02:31;;;;;;;4.72;2.00;;;;;;;18.59;35.82;101323.84;5048311;28;20069;-87
2022/05/30 11:05:04;;;;;;;4.63;1.85;;;;;;;18.67;35.88;101318.00;5051345;28;20024;-88
2022/05/30 11:07:57;;;;;;;5.53;1.83;;;;;;;18.98;36.21;101312.31;5047526;28;20028;-88
2022/05/30 11:10:38;;;;;;;4.10;1.77;;;;;;;19.65;34.94;101309.50;5037257;28;20067;-88
2022/05/30 11:13:16;;;;;;;4.25;1.70;;;;;;;20.19;34.20;101308.31;5042222;28;20473;-88
2022/05/30 11:15:48;;;;;;;3.80;1.95;;;;;;;20.80;31.97;101304.66;5043625;28;20027;-88
2022/05/30 11:18:25;;;;;;;2.72;1.50;;;;;;;21.08;31.75;101316.84;5041527;28;20086;-88
2022/05/30 11:21:18;;;;;;;4.03;1.52;;;;;;;20.76;32.13;101316.59;5063908;28;20468;-88
2022/05/30 11:23:43;;;;;;;2.50;1.60;;;;;;;20.72;31.53;101315.13;5042250;28;20500;-88
2022/05/30 11:26:18;;;;;;;3.35;1.40;;;;;;;20.83;31.71;101309.78;5043465;28;20037;-88
2022/05/30 11:28:56;;;;;;;2.40;1.58;;;;;;;20.85;33.28;101305.16;5045196;28;20516;-88
2022/05/30 11:31:37;;;;;;;4.18;1.60;;;;;;;21.34;32.79;101303.22;5044626;28;20539;-89
2022/05/30 11:34:18;;;;;;;5.70;1.90;;;;;;;22.12;32.62;101305.09;5045505;28;20107;-88
2022/05/30 11:36:55;;;;;;;7.80;1.67;;;;;;;22.64;31.85;101301.66;5044630;28;20099;-88
2022/05/30 11:39:44;;;;;;;2.10;1.42;;;;;;;22.38;31.19;101308.34;5047012;28;20476;-88
2022/05/30 11:42:42;;;;;;;1.23;1.15;;;;;;;21.85;30.30;101306.31;5059864;28;20028;-88
2022/05/30 11:45:38;;;;;;;2.42;1.27;;;;;;;21.84;31.00;101306.44;5048188;28;20406;-88
2022/05/30 11:48:22;;;;;;;3.30;1.00;;;;;;;20.38;30.61;101314.91;5050664;28;20037;-89
2022/05/30 11:50:55;;;;;;;2.13;0.95;;;;;;;19.93;31.70;101312.91;5058248;28;20509;-89
2022/05/30 11:53:39;;;;;;;3.00;1.10;;;;;;;19.93;30.17;101307.53;5071805;28;20032;-88